sensor_id;sensor_type;location;lat;lon;timestamp;temperature;humidity
29813;DHT22;16707;48.106;11.548;2023-07-24T00:01:00;16.90;99.90
29813;DHT22;16707;48.106;11.548;2023-07-24T00:03:27;16.90;99.90
29813;DHT22;16707;48.106;11.548;2023-07-24T00:05:57;16.90;99.90
29813;DHT22;16707;48.106;11.548;2023-07-24T00:08:25;16.80;99.90
29813;DHT22;16707;48.106;11.548;2023-07-24T00:10:52;16.70;99.90
29813;DHT22;16707;48.106;11.548;2023-07-24T00:13:19;16.60;99.90
29813;DHT22;16707;48.106;11.548;2023-07-24T00:15:48;16.60;99.90
29813;DHT22;16707;48.106;11.548;2023-07-24T00:18:15;16.60;99.90
29813;DHT22;16707;48.106;11.548;2023-07-24T00:20:42;16.60;99.90
29813;DHT22;16707;48.106;11.548;2023-07-24T00:23:09;16.60;99.90
29813;DHT22;16707;48.106;11.548;2023-07-24T00:25:36;16.60;99.90
29813;DHT22;16707;48.106;11.548;2023-07-24T00:28:03;16.60;99.90
29813;DHT22;16707;48.106;11.548;2023-07-24T00:30:30;16.50;99.90
29813;DHT22;16707;48.106;11.548;2023-07-24T00:32:58;16.50;99.90
29813;DHT22;16707;48.106;11.548;2023-07-24T00:35:25;16.50;99.90
29813;DHT22;16707;48.106;11.548;2023-07-24T00:37:52;16.40;99.90
29813;DHT22;16707;48.106;11.548;2023-07-24T00:40:20;16.30;99.90
29813;DHT22;16707;48.106;11.548;2023-07-24T00:42:47;16.30;99.90
29813;DHT22;16707;48.106;11.548;2023-07-24T00:45:14;16.20;99.90
29813;DHT22;16707;48.106;11.548;2023-07-24T00:47:42;16.20;99.90
29813;DHT22;16707;48.106;11.548;2023-07-24T00:50:12;16.20;99.90
29813;DHT22;16707;48.106;11.548;2023-07-24T00:52:39;16.20;99.90
29813;DHT22;16707;48.106;11.548;2023-07-24T00:55:07;16.20;99.90
29813;DHT22;16707;48.106;11.548;2023-07-24T00:57:35;16.10;99.90
29813;DHT22;16707;48.106;11.548;2023-07-24T01:00:03;16.10;99.90
29813;DHT22;16707;48.106;11.548;2023-07-24T01:02:30;16.10;99.90
29813;DHT22;16707;48.106;11.548;2023-07-24T01:04:57;16.10;99.90
29813;DHT22;16707;48.106;11.548;2023-07-24T01:07:26;16.00;99.90
29813;DHT22;16707;48.106;11.548;2023-07-24T01:09:53;16.00;99.90
29813;DHT22;16707;48.106;11.548;2023-07-24T01:12:26;15.90;99.90
29813;DHT22;16707;48.106;11.548;2023-07-24T01:15:03;15.90;99.90
29813;DHT22;16707;48.106;11.548;2023-07-24T01:17:38;15.90;99.90
29813;DHT22;16707;48.106;11.548;2023-07-24T01:20:09;15.90;99.90
29813;DHT22;16707;48.106;11.548;2023-07-24T01:22:48;16.00;99.90
29813;DHT22;16707;48.106;11.548;2023-07-24T01:25:28;16.00;99.90
29813;DHT22;16707;48.106;11.548;2023-07-24T01:28:06;15.90;99.90
29813;DHT22;16707;48.106;11.548;2023-07-24T01:30:34;15.90;99.90
29813;DHT22;16707;48.106;11.548;2023-07-24T01:33:01;15.80;99.90
29813;DHT22;16707;48.106;11.548;2023-07-24T01:35:29;15.80;99.90
29813;DHT22;16707;48.106;11.548;2023-07-24T01:37:57;15.90;99.90
29813;DHT22;16707;48.106;11.548;2023-07-24T01:40:24;15.90;99.90
29813;DHT22;16707;48.106;11.548;2023-07-24T01:42:51;15.90;99.90
29813;DHT22;16707;48.106;11.548;2023-07-24T01:45:20;16.10;99.90
29813;DHT22;16707;48.106;11.548;2023-07-24T01:47:47;16.10;99.90
29813;DHT22;16707;48.106;11.548;2023-07-24T01:50:14;16.10;99.90
29813;DHT22;16707;48.106;11.548;2023-07-24T01:52:41;16.10;99.90
29813;DHT22;16707;48.106;11.548;2023-07-24T01:55:09;16.00;99.90
29813;DHT22;16707;48.106;11.548;2023-07-24T01:57:36;16.00;99.90
29813;DHT22;16707;48.106;11.548;2023-07-24T02:00:05;16.00;99.90
29813;DHT22;16707;48.106;11.548;2023-07-24T02:02:33;16.00;99.90
29813;DHT22;16707;48.106;11.548;2023-07-24T02:05:00;16.00;99.90
29813;DHT22;16707;48.106;11.548;2023-07-24T02:07:27;16.20;99.90
29813;DHT22;16707;48.106;11.548;2023-07-24T02:09:54;16.20;99.90
29813;DHT22;16707;48.106;11.548;2023-07-24T02:12:21;16.10;99.90
29813;DHT22;16707;48.106;11.548;2023-07-24T02:14:48;16.00;99.90
29813;DHT22;16707;48.106;11.548;2023-07-24T02:17:17;16.20;99.90
29813;DHT22;16707;48.106;11.548;2023-07-24T02:19:46;16.20;99.90
29813;DHT22;16707;48.106;11.548;2023-07-24T02:22:13;16.20;99.90
29813;DHT22;16707;48.106;11.548;2023-07-24T02:24:40;16.10;99.90
29813;DHT22;16707;48.106;11.548;2023-07-24T02:27:07;16.00;99.90
29813;DHT22;16707;48.106;11.548;2023-07-24T02:29:34;16.00;99.90
29813;DHT22;16707;48.106;11.548;2023-07-24T02:32:01;16.10;99.90
29813;DHT22;16707;48.106;11.548;2023-07-24T02:34:28;16.20;99.90
29813;DHT22;16707;48.106;11.548;2023-07-24T02:36:56;16.20;99.90
29813;DHT22;16707;48.106;11.548;2023-07-24T02:39:23;16.30;99.90
29813;DHT22;16707;48.106;11.548;2023-07-24T02:41:50;16.60;99.90
29813;DHT22;16707;48.106;11.548;2023-07-24T02:44:17;17.10;99.90
29813;DHT22;16707;48.106;11.548;2023-07-24T02:46:44;17.30;99.90
29813;DHT22;16707;48.106;11.548;2023-07-24T02:49:11;17.60;99.90
29813;DHT22;16707;48.106;11.548;2023-07-24T02:51:38;17.90;99.90
29813;DHT22;16707;48.106;11.548;2023-07-24T02:54:06;17.90;99.90
29813;DHT22;16707;48.106;11.548;2023-07-24T02:56:33;17.90;99.90
29813;DHT22;16707;48.106;11.548;2023-07-24T02:59:00;17.90;99.90
29813;DHT22;16707;48.106;11.548;2023-07-24T03:01:27;17.80;99.90
29813;DHT22;16707;48.106;11.548;2023-07-24T03:03:54;17.70;99.90
29813;DHT22;16707;48.106;11.548;2023-07-24T03:06:21;17.80;99.90
29813;DHT22;16707;48.106;11.548;2023-07-24T03:08:48;18.00;99.90
29813;DHT22;16707;48.106;11.548;2023-07-24T03:11:16;18.20;99.90
29813;DHT22;16707;48.106;11.548;2023-07-24T03:13:43;18.40;99.90
29813;DHT22;16707;48.106;11.548;2023-07-24T03:16:10;18.30;99.90
29813;DHT22;16707;48.106;11.548;2023-07-24T03:18:37;18.30;99.90
29813;DHT22;16707;48.106;11.548;2023-07-24T03:21:04;18.20;99.90
29813;DHT22;16707;48.106;11.548;2023-07-24T03:23:31;18.10;99.90
29813;DHT22;16707;48.106;11.548;2023-07-24T03:25:58;18.00;99.90
29813;DHT22;16707;48.106;11.548;2023-07-24T03:28:27;17.90;99.90
29813;DHT22;16707;48.106;11.548;2023-07-24T03:30:54;17.90;99.90
29813;DHT22;16707;48.106;11.548;2023-07-24T03:33:21;17.90;99.90
29813;DHT22;16707;48.106;11.548;2023-07-24T03:35:48;17.90;99.90
29813;DHT22;16707;48.106;11.548;2023-07-24T03:38:15;17.90;99.90
29813;DHT22;16707;48.106;11.548;2023-07-24T03:40:42;17.80;99.90
29813;DHT22;16707;48.106;11.548;2023-07-24T03:43:09;17.90;99.90
29813;DHT22;16707;48.106;11.548;2023-07-24T03:45:37;17.70;99.90
29813;DHT22;16707;48.106;11.548;2023-07-24T03:48:05;17.60;99.90
29813;DHT22;16707;48.106;11.548;2023-07-24T03:50:32;17.50;99.90
29813;DHT22;16707;48.106;11.548;2023-07-24T03:52:59;17.60;99.90
29813;DHT22;16707;48.106;11.548;2023-07-24T03:55:26;17.60;99.90
29813;DHT22;16707;48.106;11.548;2023-07-24T03:57:53;17.60;99.90
29813;DHT22;16707;48.106;11.548;2023-07-24T04:00:20;17.60;99.90
29813;DHT22;16707;48.106;11.548;2023-07-24T04:02:48;17.70;99.90
29813;DHT22;16707;48.106;11.548;2023-07-24T04:05:15;17.60;99.90
29813;DHT22;16707;48.106;11.548;2023-07-24T04:07:42;17.70;99.90
29813;DHT22;16707;48.106;11.548;2023-07-24T04:10:09;17.70;99.90
29813;DHT22;16707;48.106;11.548;2023-07-24T04:12:36;17.80;99.90
29813;DHT22;16707;48.106;11.548;2023-07-24T04:15:04;17.80;99.90
29813;DHT22;16707;48.106;11.548;2023-07-24T04:17:31;17.80;99.90
29813;DHT22;16707;48.106;11.548;2023-07-24T04:19:59;17.80;99.90
29813;DHT22;16707;48.106;11.548;2023-07-24T04:22:26;17.80;99.90
29813;DHT22;16707;48.106;11.548;2023-07-24T04:24:53;17.80;99.90
29813;DHT22;16707;48.106;11.548;2023-07-24T04:27:20;17.80;99.90
29813;DHT22;16707;48.106;11.548;2023-07-24T04:29:47;17.80;99.90
29813;DHT22;16707;48.106;11.548;2023-07-24T04:32:14;17.90;99.90
29813;DHT22;16707;48.106;11.548;2023-07-24T04:34:41;17.90;99.90
29813;DHT22;16707;48.106;11.548;2023-07-24T04:37:09;17.90;99.90
29813;DHT22;16707;48.106;11.548;2023-07-24T04:39:38;17.90;99.90
29813;DHT22;16707;48.106;11.548;2023-07-24T04:42:05;17.90;99.90
29813;DHT22;16707;48.106;11.548;2023-07-24T04:44:33;17.80;99.90
29813;DHT22;16707;48.106;11.548;2023-07-24T04:46:59;17.90;99.90
29813;DHT22;16707;48.106;11.548;2023-07-24T04:49:28;18.00;99.90
29813;DHT22;16707;48.106;11.548;2023-07-24T04:51:56;18.10;99.90
29813;DHT22;16707;48.106;11.548;2023-07-24T04:54:24;18.20;99.90
29813;DHT22;16707;48.106;11.548;2023-07-24T04:56:51;18.30;99.90
29813;DHT22;16707;48.106;11.548;2023-07-24T04:59:18;18.50;99.90
29813;DHT22;16707;48.106;11.548;2023-07-24T05:01:45;18.60;99.90
29813;DHT22;16707;48.106;11.548;2023-07-24T05:04:12;18.80;99.90
29813;DHT22;16707;48.106;11.548;2023-07-24T05:06:39;19.50;99.90
29813;DHT22;16707;48.106;11.548;2023-07-24T05:09:06;20.00;99.90
29813;DHT22;16707;48.106;11.548;2023-07-24T05:11:34;19.90;99.90
29813;DHT22;16707;48.106;11.548;2023-07-24T05:14:01;20.10;99.90
29813;DHT22;16707;48.106;11.548;2023-07-24T05:16:29;20.30;99.90
29813;DHT22;16707;48.106;11.548;2023-07-24T05:18:56;20.20;99.90
29813;DHT22;16707;48.106;11.548;2023-07-24T05:21:23;20.30;99.90
29813;DHT22;16707;48.106;11.548;2023-07-24T05:23:50;20.20;99.90
29813;DHT22;16707;48.106;11.548;2023-07-24T05:26:17;20.20;99.90
29813;DHT22;16707;48.106;11.548;2023-07-24T05:28:46;20.30;99.90
29813;DHT22;16707;48.106;11.548;2023-07-24T05:31:13;21.30;99.90
29813;DHT22;16707;48.106;11.548;2023-07-24T05:33:40;22.80;99.90
29813;DHT22;16707;48.106;11.548;2023-07-24T05:36:06;24.80;99.90
29813;DHT22;16707;48.106;11.548;2023-07-24T05:38:33;26.20;98.90
29813;DHT22;16707;48.106;11.548;2023-07-24T05:41:02;27.00;98.20
29813;DHT22;16707;48.106;11.548;2023-07-24T05:43:30;29.60;89.30
29813;DHT22;16707;48.106;11.548;2023-07-24T05:45:59;31.10;77.00
29813;DHT22;16707;48.106;11.548;2023-07-24T05:48:26;33.00;69.30
29813;DHT22;16707;48.106;11.548;2023-07-24T05:50:53;33.70;61.20
29813;DHT22;16707;48.106;11.548;2023-07-24T05:53:20;30.40;65.00
29813;DHT22;16707;48.106;11.548;2023-07-24T05:55:47;28.60;76.90
29813;DHT22;16707;48.106;11.548;2023-07-24T05:58:14;29.80;72.10
29813;DHT22;16707;48.106;11.548;2023-07-24T06:00:41;31.40;67.40
29813;DHT22;16707;48.106;11.548;2023-07-24T06:03:10;32.20;62.40
29813;DHT22;16707;48.106;11.548;2023-07-24T06:05:37;33.40;59.50
29813;DHT22;16707;48.106;11.548;2023-07-24T06:08:04;34.30;56.60
29813;DHT22;16707;48.106;11.548;2023-07-24T06:10:34;35.50;54.60
29813;DHT22;16707;48.106;11.548;2023-07-24T06:13:01;36.60;50.90
29813;DHT22;16707;48.106;11.548;2023-07-24T06:15:28;35.80;51.20
29813;DHT22;16707;48.106;11.548;2023-07-24T06:17:55;34.30;52.60
29813;DHT22;16707;48.106;11.548;2023-07-24T06:20:23;31.60;57.90
29813;DHT22;16707;48.106;11.548;2023-07-24T06:22:51;29.70;63.60
29813;DHT22;16707;48.106;11.548;2023-07-24T06:25:17;29.60;73.10
29813;DHT22;16707;48.106;11.548;2023-07-24T06:27:44;30.40;66.50
29813;DHT22;16707;48.106;11.548;2023-07-24T06:30:11;32.20;62.20
29813;DHT22;16707;48.106;11.548;2023-07-24T06:32:38;34.90;57.00
29813;DHT22;16707;48.106;11.548;2023-07-24T06:35:06;37.50;53.00
29813;DHT22;16707;48.106;11.548;2023-07-24T06:37:35;40.20;45.10
29813;DHT22;16707;48.106;11.548;2023-07-24T06:40:02;42.50;40.00
29813;DHT22;16707;48.106;11.548;2023-07-24T06:42:29;42.00;39.10
29813;DHT22;16707;48.106;11.548;2023-07-24T06:44:56;42.20;37.60
29813;DHT22;16707;48.106;11.548;2023-07-24T06:47:23;42.20;36.10
29813;DHT22;16707;48.106;11.548;2023-07-24T06:49:50;41.50;38.00
29813;DHT22;16707;48.106;11.548;2023-07-24T06:52:17;41.30;37.60
29813;DHT22;16707;48.106;11.548;2023-07-24T06:54:46;40.70;39.60
29813;DHT22;16707;48.106;11.548;2023-07-24T06:57:13;40.80;37.60
29813;DHT22;16707;48.106;11.548;2023-07-24T06:59:40;37.90;40.10
29813;DHT22;16707;48.106;11.548;2023-07-24T07:02:08;37.50;45.20
29813;DHT22;16707;48.106;11.548;2023-07-24T07:04:35;36.60;45.00
29813;DHT22;16707;48.106;11.548;2023-07-24T07:07:02;38.60;45.00
29813;DHT22;16707;48.106;11.548;2023-07-24T07:09:29;40.20;40.00
29813;DHT22;16707;48.106;11.548;2023-07-24T07:11:57;41.10;36.50
29813;DHT22;16707;48.106;11.548;2023-07-24T07:14:25;42.10;35.00
29813;DHT22;16707;48.106;11.548;2023-07-24T07:16:52;40.50;34.80
29813;DHT22;16707;48.106;11.548;2023-07-24T07:19:19;37.00;43.50
29813;DHT22;16707;48.106;11.548;2023-07-24T07:21:46;35.80;46.20
29813;DHT22;16707;48.106;11.548;2023-07-24T07:24:13;32.70;47.80
29813;DHT22;16707;48.106;11.548;2023-07-24T07:26:40;30.70;55.60
29813;DHT22;16707;48.106;11.548;2023-07-24T07:29:08;28.90;59.80
29813;DHT22;16707;48.106;11.548;2023-07-24T07:31:35;27.80;66.00
29813;DHT22;16707;48.106;11.548;2023-07-24T07:34:02;26.90;66.10
29813;DHT22;16707;48.106;11.548;2023-07-24T07:36:29;26.20;71.90
29813;DHT22;16707;48.106;11.548;2023-07-24T07:38:56;25.70;74.10
29813;DHT22;16707;48.106;11.548;2023-07-24T07:41:23;25.20;78.20
29813;DHT22;16707;48.106;11.548;2023-07-24T07:43:50;24.60;85.80
29813;DHT22;16707;48.106;11.548;2023-07-24T07:46:18;23.70;91.80
29813;DHT22;16707;48.106;11.548;2023-07-24T07:48:45;23.40;93.60
29813;DHT22;16707;48.106;11.548;2023-07-24T07:51:14;23.20;94.80
29813;DHT22;16707;48.106;11.548;2023-07-24T07:53:41;22.90;96.70
29813;DHT22;16707;48.106;11.548;2023-07-24T07:56:08;22.80;98.50
29813;DHT22;16707;48.106;11.548;2023-07-24T07:58:35;22.70;99.60
29813;DHT22;16707;48.106;11.548;2023-07-24T08:01:03;22.60;99.90
29813;DHT22;16707;48.106;11.548;2023-07-24T08:03:32;22.60;99.90
29813;DHT22;16707;48.106;11.548;2023-07-24T08:06:00;22.60;99.90
29813;DHT22;16707;48.106;11.548;2023-07-24T08:08:27;22.60;99.90
29813;DHT22;16707;48.106;11.548;2023-07-24T08:10:54;22.60;99.90
29813;DHT22;16707;48.106;11.548;2023-07-24T08:13:21;22.60;99.90
29813;DHT22;16707;48.106;11.548;2023-07-24T08:15:49;22.70;99.90
29813;DHT22;16707;48.106;11.548;2023-07-24T08:18:16;22.70;99.90
29813;DHT22;16707;48.106;11.548;2023-07-24T08:20:44;22.70;99.90
29813;DHT22;16707;48.106;11.548;2023-07-24T08:23:11;22.70;99.90
29813;DHT22;16707;48.106;11.548;2023-07-24T08:25:38;22.70;99.90
29813;DHT22;16707;48.106;11.548;2023-07-24T08:28:05;22.50;99.90
29813;DHT22;16707;48.106;11.548;2023-07-24T08:30:34;22.50;99.90
29813;DHT22;16707;48.106;11.548;2023-07-24T08:33:01;22.30;99.90
29813;DHT22;16707;48.106;11.548;2023-07-24T08:35:28;22.40;99.90
29813;DHT22;16707;48.106;11.548;2023-07-24T08:37:57;22.60;99.90
29813;DHT22;16707;48.106;11.548;2023-07-24T08:40:24;22.60;99.90
29813;DHT22;16707;48.106;11.548;2023-07-24T08:42:51;22.70;99.90
29813;DHT22;16707;48.106;11.548;2023-07-24T08:45:18;22.90;99.90
29813;DHT22;16707;48.106;11.548;2023-07-24T08:47:46;22.70;99.90
29813;DHT22;16707;48.106;11.548;2023-07-24T08:50:13;23.10;99.90
29813;DHT22;16707;48.106;11.548;2023-07-24T08:52:41;23.40;99.90
29813;DHT22;16707;48.106;11.548;2023-07-24T08:55:11;23.90;99.90
29813;DHT22;16707;48.106;11.548;2023-07-24T08:57:38;24.20;99.90
29813;DHT22;16707;48.106;11.548;2023-07-24T09:00:06;24.00;98.40
29813;DHT22;16707;48.106;11.548;2023-07-24T09:02:35;23.60;99.40
29813;DHT22;16707;48.106;11.548;2023-07-24T09:05:02;23.40;99.90
29813;DHT22;16707;48.106;11.548;2023-07-24T09:07:30;23.10;99.90
29813;DHT22;16707;48.106;11.548;2023-07-24T09:09:57;22.80;99.90
29813;DHT22;16707;48.106;11.548;2023-07-24T09:12:25;22.70;99.90
29813;DHT22;16707;48.106;11.548;2023-07-24T09:15:01;22.70;99.90
29813;DHT22;16707;48.106;11.548;2023-07-24T09:17:29;22.80;99.90
29813;DHT22;16707;48.106;11.548;2023-07-24T09:19:56;22.60;99.90
29813;DHT22;16707;48.106;11.548;2023-07-24T09:22:24;22.60;99.90
29813;DHT22;16707;48.106;11.548;2023-07-24T09:24:54;22.70;99.90
29813;DHT22;16707;48.106;11.548;2023-07-24T09:27:27;22.70;99.90
29813;DHT22;16707;48.106;11.548;2023-07-24T09:29:55;23.20;99.90
29813;DHT22;16707;48.106;11.548;2023-07-24T09:32:24;23.80;99.90
29813;DHT22;16707;48.106;11.548;2023-07-24T09:34:51;24.30;99.90
29813;DHT22;16707;48.106;11.548;2023-07-24T09:37:26;25.00;96.50
29813;DHT22;16707;48.106;11.548;2023-07-24T09:39:54;25.80;93.40
29813;DHT22;16707;48.106;11.548;2023-07-24T09:42:33;26.20;90.20
29813;DHT22;16707;48.106;11.548;2023-07-24T09:45:01;26.30;89.30
29813;DHT22;16707;48.106;11.548;2023-07-24T09:47:29;26.60;85.20
29813;DHT22;16707;48.106;11.548;2023-07-24T09:49:56;27.00;80.90
29813;DHT22;16707;48.106;11.548;2023-07-24T09:52:24;27.30;81.10
29813;DHT22;16707;48.106;11.548;2023-07-24T09:54:59;27.70;79.10
29813;DHT22;16707;48.106;11.548;2023-07-24T09:57:32;27.70;73.60
29813;DHT22;16707;48.106;11.548;2023-07-24T10:00:00;28.10;71.20
29813;DHT22;16707;48.106;11.548;2023-07-24T10:02:28;29.00;72.00
29813;DHT22;16707;48.106;11.548;2023-07-24T10:04:56;28.90;67.90
29813;DHT22;16707;48.106;11.548;2023-07-24T10:07:23;28.80;66.30
29813;DHT22;16707;48.106;11.548;2023-07-24T10:09:50;28.10;67.70
29813;DHT22;16707;48.106;11.548;2023-07-24T10:12:18;28.60;70.90
29813;DHT22;16707;48.106;11.548;2023-07-24T10:14:48;28.70;68.30
29813;DHT22;16707;48.106;11.548;2023-07-24T10:17:33;28.60;64.90
29813;DHT22;16707;48.106;11.548;2023-07-24T10:20:03;28.70;69.50
29813;DHT22;16707;48.106;11.548;2023-07-24T10:22:31;29.10;64.50
29813;DHT22;16707;48.106;11.548;2023-07-24T10:24:58;29.40;66.50
29813;DHT22;16707;48.106;11.548;2023-07-24T10:27:26;29.80;60.30
29813;DHT22;16707;48.106;11.548;2023-07-24T10:30:02;29.60;59.30
29813;DHT22;16707;48.106;11.548;2023-07-24T10:32:29;29.80;61.20
29813;DHT22;16707;48.106;11.548;2023-07-24T10:35:00;29.70;62.50
29813;DHT22;16707;48.106;11.548;2023-07-24T10:37:34;29.90;60.00
29813;DHT22;16707;48.106;11.548;2023-07-24T10:40:03;30.70;58.50
29813;DHT22;16707;48.106;11.548;2023-07-24T10:42:31;30.90;56.30
29813;DHT22;16707;48.106;11.548;2023-07-24T10:45:08;31.00;57.30
29813;DHT22;16707;48.106;11.548;2023-07-24T10:47:36;30.60;59.00
29813;DHT22;16707;48.106;11.548;2023-07-24T10:50:03;29.90;56.60
29813;DHT22;16707;48.106;11.548;2023-07-24T10:52:32;29.30;62.40
29813;DHT22;16707;48.106;11.548;2023-07-24T10:55:00;29.00;61.00
29813;DHT22;16707;48.106;11.548;2023-07-24T10:57:29;28.90;64.80
29813;DHT22;16707;48.106;11.548;2023-07-24T10:59:56;29.40;65.40
29813;DHT22;16707;48.106;11.548;2023-07-24T11:02:24;29.40;64.90
29813;DHT22;16707;48.106;11.548;2023-07-24T11:04:52;29.50;58.70
29813;DHT22;16707;48.106;11.548;2023-07-24T11:07:19;29.30;60.90
29813;DHT22;16707;48.106;11.548;2023-07-24T11:09:47;29.50;59.70
29813;DHT22;16707;48.106;11.548;2023-07-24T11:12:15;29.50;60.60
29813;DHT22;16707;48.106;11.548;2023-07-24T11:14:49;29.70;58.30
29813;DHT22;16707;48.106;11.548;2023-07-24T11:17:17;30.00;56.50
29813;DHT22;16707;48.106;11.548;2023-07-24T11:19:46;30.10;57.00
29813;DHT22;16707;48.106;11.548;2023-07-24T11:22:13;29.80;57.30
29813;DHT22;16707;48.106;11.548;2023-07-24T11:24:45;30.30;55.60
29813;DHT22;16707;48.106;11.548;2023-07-24T11:27:14;30.10;55.10
29813;DHT22;16707;48.106;11.548;2023-07-24T11:29:41;30.00;55.30
29813;DHT22;16707;48.106;11.548;2023-07-24T11:32:08;29.90;55.90
29813;DHT22;16707;48.106;11.548;2023-07-24T11:34:36;30.10;55.80
29813;DHT22;16707;48.106;11.548;2023-07-24T11:37:06;30.10;55.70
29813;DHT22;16707;48.106;11.548;2023-07-24T11:39:33;29.90;55.00
29813;DHT22;16707;48.106;11.548;2023-07-24T11:42:01;29.70;55.50
29813;DHT22;16707;48.106;11.548;2023-07-24T11:44:28;29.80;55.50
29813;DHT22;16707;48.106;11.548;2023-07-24T11:47:02;29.30;55.60
29813;DHT22;16707;48.106;11.548;2023-07-24T11:49:30;29.40;55.80
29813;DHT22;16707;48.106;11.548;2023-07-24T11:52:04;29.30;56.60
29813;DHT22;16707;48.106;11.548;2023-07-24T11:54:33;29.60;57.00
29813;DHT22;16707;48.106;11.548;2023-07-24T11:57:01;29.90;57.40
29813;DHT22;16707;48.106;11.548;2023-07-24T11:59:36;29.50;56.00
29813;DHT22;16707;48.106;11.548;2023-07-24T12:02:05;29.50;56.60
29813;DHT22;16707;48.106;11.548;2023-07-24T12:04:32;29.00;58.50
29813;DHT22;16707;48.106;11.548;2023-07-24T12:06:59;28.50;58.40
29813;DHT22;16707;48.106;11.548;2023-07-24T12:09:30;28.30;60.50
29813;DHT22;16707;48.106;11.548;2023-07-24T12:11:58;28.00;62.80
29813;DHT22;16707;48.106;11.548;2023-07-24T12:14:25;28.10;61.60
29813;DHT22;16707;48.106;11.548;2023-07-24T12:17:00;28.20;60.00
29813;DHT22;16707;48.106;11.548;2023-07-24T12:19:27;27.80;61.20
29813;DHT22;16707;48.106;11.548;2023-07-24T12:21:54;27.20;63.50
29813;DHT22;16707;48.106;11.548;2023-07-24T12:24:21;26.50;67.20
29813;DHT22;16707;48.106;11.548;2023-07-24T12:26:50;25.80;72.20
29813;DHT22;16707;48.106;11.548;2023-07-24T12:29:17;25.50;75.00
29813;DHT22;16707;48.106;11.548;2023-07-24T12:31:44;25.40;78.80
29813;DHT22;16707;48.106;11.548;2023-07-24T12:34:10;24.50;99.00
29813;DHT22;16707;48.106;11.548;2023-07-24T12:36:37;23.60;95.90
29813;DHT22;16707;48.106;11.548;2023-07-24T12:39:05;23.10;98.40
29813;DHT22;16707;48.106;11.548;2023-07-24T12:41:32;23.20;98.90
29813;DHT22;16707;48.106;11.548;2023-07-24T12:44:00;23.20;98.20
29813;DHT22;16707;48.106;11.548;2023-07-24T12:46:27;23.10;97.90
29813;DHT22;16707;48.106;11.548;2023-07-24T12:48:54;23.30;98.30
29813;DHT22;16707;48.106;11.548;2023-07-24T12:51:21;23.40;98.00
29813;DHT22;16707;48.106;11.548;2023-07-24T12:53:48;23.50;97.80
29813;DHT22;16707;48.106;11.548;2023-07-24T12:56:15;23.30;98.40
29813;DHT22;16707;48.106;11.548;2023-07-24T12:58:42;23.50;98.10
29813;DHT22;16707;48.106;11.548;2023-07-24T13:01:11;23.60;98.00
29813;DHT22;16707;48.106;11.548;2023-07-24T13:03:38;23.70;97.90
29813;DHT22;16707;48.106;11.548;2023-07-24T13:06:05;23.40;98.90
29813;DHT22;16707;48.106;11.548;2023-07-24T13:08:32;23.10;99.80
29813;DHT22;16707;48.106;11.548;2023-07-24T13:10:59;22.80;99.90
29813;DHT22;16707;48.106;11.548;2023-07-24T13:13:25;22.60;99.90
29813;DHT22;16707;48.106;11.548;2023-07-24T13:15:52;22.20;99.90
29813;DHT22;16707;48.106;11.548;2023-07-24T13:18:21;22.20;99.90
29813;DHT22;16707;48.106;11.548;2023-07-24T13:20:48;22.10;99.90
29813;DHT22;16707;48.106;11.548;2023-07-24T13:23:15;22.10;99.90
29813;DHT22;16707;48.106;11.548;2023-07-24T13:25:42;21.70;99.90
29813;DHT22;16707;48.106;11.548;2023-07-24T13:28:09;21.60;99.90
29813;DHT22;16707;48.106;11.548;2023-07-24T13:30:36;21.40;99.90
29813;DHT22;16707;48.106;11.548;2023-07-24T13:33:03;21.30;99.90
29813;DHT22;16707;48.106;11.548;2023-07-24T13:35:31;21.30;99.90
29813;DHT22;16707;48.106;11.548;2023-07-24T13:37:58;21.70;99.90
29813;DHT22;16707;48.106;11.548;2023-07-24T13:40:25;22.10;99.90
29813;DHT22;16707;48.106;11.548;2023-07-24T13:42:52;22.70;99.90
29813;DHT22;16707;48.106;11.548;2023-07-24T13:45:19;23.00;99.90
29813;DHT22;16707;48.106;11.548;2023-07-24T13:47:46;23.50;99.90
29813;DHT22;16707;48.106;11.548;2023-07-24T13:50:13;24.00;99.90
29813;DHT22;16707;48.106;11.548;2023-07-24T13:52:42;23.90;99.90
29813;DHT22;16707;48.106;11.548;2023-07-24T13:55:09;23.80;99.90
29813;DHT22;16707;48.106;11.548;2023-07-24T13:57:36;23.70;99.90
29813;DHT22;16707;48.106;11.548;2023-07-24T14:00:04;23.80;99.90
29813;DHT22;16707;48.106;11.548;2023-07-24T14:02:32;23.80;99.90
29813;DHT22;16707;48.106;11.548;2023-07-24T14:04:59;23.80;99.90
29813;DHT22;16707;48.106;11.548;2023-07-24T14:07:26;24.10;99.90
29813;DHT22;16707;48.106;11.548;2023-07-24T14:09:54;24.50;99.90
29813;DHT22;16707;48.106;11.548;2023-07-24T14:12:21;24.80;99.90
29813;DHT22;16707;48.106;11.548;2023-07-24T14:14:48;24.80;96.60
29813;DHT22;16707;48.106;11.548;2023-07-24T14:17:15;24.80;96.10
29813;DHT22;16707;48.106;11.548;2023-07-24T14:19:44;24.70;97.70
29813;DHT22;16707;48.106;11.548;2023-07-24T14:22:11;25.00;95.60
29813;DHT22;16707;48.106;11.548;2023-07-24T14:24:38;25.00;95.20
29813;DHT22;16707;48.106;11.548;2023-07-24T14:27:07;25.00;94.50
29813;DHT22;16707;48.106;11.548;2023-07-24T14:29:34;25.00;94.00
29813;DHT22;16707;48.106;11.548;2023-07-24T14:32:01;25.30;93.70
29813;DHT22;16707;48.106;11.548;2023-07-24T14:34:28;25.40;93.40
29813;DHT22;16707;48.106;11.548;2023-07-24T14:36:55;25.10;92.10
29813;DHT22;16707;48.106;11.548;2023-07-24T14:39:21;25.00;93.60
29813;DHT22;16707;48.106;11.548;2023-07-24T14:41:49;25.00;93.20
29813;DHT22;16707;48.106;11.548;2023-07-24T14:44:17;25.40;94.10
29813;DHT22;16707;48.106;11.548;2023-07-24T14:46:44;25.40;93.70
29813;DHT22;16707;48.106;11.548;2023-07-24T14:49:11;25.30;94.50
29813;DHT22;16707;48.106;11.548;2023-07-24T14:51:38;25.40;94.40
29813;DHT22;16707;48.106;11.548;2023-07-24T14:54:05;25.80;93.80
29813;DHT22;16707;48.106;11.548;2023-07-24T14:56:33;26.20;92.40
29813;DHT22;16707;48.106;11.548;2023-07-24T14:59:00;26.10;92.40
29813;DHT22;16707;48.106;11.548;2023-07-24T15:01:28;25.60;92.20
29813;DHT22;16707;48.106;11.548;2023-07-24T15:03:56;25.50;91.90
29813;DHT22;16707;48.106;11.548;2023-07-24T15:06:23;25.20;92.40
29813;DHT22;16707;48.106;11.548;2023-07-24T15:08:50;25.00;92.50
29813;DHT22;16707;48.106;11.548;2023-07-24T15:11:19;24.90;93.20
29813;DHT22;16707;48.106;11.548;2023-07-24T15:13:48;24.60;93.60
29813;DHT22;16707;48.106;11.548;2023-07-24T15:16:15;24.40;93.60
29813;DHT22;16707;48.106;11.548;2023-07-24T15:18:43;24.50;94.00